createdAt,value
2023-05-20T07:09:55.851Z,5.47
2023-05-20T10:52:10.000Z,3.50
2023-05-20T10:54:38.197Z,3.25
2023-05-20T10:57:09.227Z,3.47
2023-05-20T10:59:37.377Z,3.30
2023-05-20T11:02:05.827Z,3.17
2023-05-20T11:04:33.693Z,3.22
2023-05-20T11:07:01.239Z,3.08
2023-05-20T11:09:31.238Z,3.33
2023-05-20T11:11:59.327Z,3.63
2023-05-20T11:14:29.510Z,3.55
2023-05-20T11:16:58.246Z,4.55
2023-05-20T11:19:26.625Z,3.67
2023-05-20T11:21:54.624Z,3.70
2023-05-20T11:24:27.545Z,3.83
2023-05-20T11:26:57.604Z,3.72
2023-05-20T11:29:29.022Z,3.75
2023-05-20T11:31:56.671Z,3.10
2023-05-20T11:34:26.390Z,2.88
2023-05-20T11:36:57.856Z,3.33
2023-05-20T11:39:26.889Z,2.75
2023-05-20T11:41:56.013Z,3.60
2023-05-20T11:44:23.540Z,3.17
2023-05-20T11:46:51.217Z,2.88
2023-05-20T11:49:19.165Z,3.47
2023-05-20T11:51:46.872Z,3.10
2023-05-20T11:54:14.454Z,3.30
2023-05-20T11:56:42.468Z,3.58
2023-05-20T11:59:11.526Z,3.60
2023-05-20T12:01:41.022Z,3.30
2023-05-20T12:04:09.035Z,3.25
2023-05-20T12:06:38.230Z,2.75
2023-05-20T12:09:08.822Z,2.97
2023-05-20T12:11:37.592Z,3.08
2023-05-20T12:14:05.422Z,3.00
2023-05-20T12:16:35.853Z,3.40
2023-05-20T12:19:03.738Z,3.45
2023-05-20T12:21:32.317Z,3.35
2023-05-20T12:24:01.038Z,3.05
2023-05-20T12:26:30.259Z,3.47
2023-05-20T12:28:58.285Z,3.35
2023-05-20T12:31:26.539Z,3.08
2023-05-20T12:33:55.575Z,3.08
2023-05-20T12:36:23.163Z,2.83
2023-05-20T12:38:50.775Z,3.15
2023-05-20T12:41:18.600Z,2.97
2023-05-20T12:43:46.199Z,3.97
2023-05-20T12:46:13.826Z,3.20
2023-05-20T12:48:42.671Z,3.60
2023-05-20T12:51:11.765Z,3.13
2023-05-20T12:53:39.451Z,3.63
2023-05-20T12:56:08.026Z,3.53
2023-05-20T12:58:35.760Z,3.50
2023-05-20T13:01:03.432Z,3.35
2023-05-20T13:03:31.070Z,3.60
2023-05-20T13:05:59.296Z,3.10
2023-05-20T13:11:52.833Z,3.53
2023-05-20T13:14:21.599Z,3.50
2023-05-20T13:16:50.317Z,3.53
2023-05-20T13:19:18.041Z,3.30
2023-05-20T13:21:45.700Z,3.10
2023-05-20T13:24:14.774Z,3.75
2023-05-20T13:26:42.494Z,3.55
2023-05-20T13:29:10.271Z,3.25
2023-05-20T13:31:38.212Z,3.22
2023-05-20T13:34:06.294Z,3.50
2023-05-20T13:36:34.415Z,3.47
2023-05-20T13:39:02.169Z,3.60
2023-05-20T13:41:31.193Z,3.58
2023-05-20T13:43:58.839Z,3.80
2023-05-20T13:46:26.501Z,3.50
2023-05-20T13:48:54.154Z,3.75
2023-05-20T13:51:21.799Z,4.47
2023-05-20T13:53:49.362Z,5.15
2023-05-20T13:56:17.045Z,3.70
2023-05-20T13:58:46.088Z,3.47
2023-05-20T14:01:15.621Z,3.35
2023-05-20T14:03:43.444Z,5.40
2023-05-20T14:06:11.544Z,3.42
2023-05-20T14:08:39.243Z,3.90
2023-05-20T14:11:06.857Z,3.47
2023-05-20T14:13:34.571Z,3.78
2023-05-20T14:16:03.761Z,3.90
2023-05-20T14:18:31.447Z,4.18
2023-05-20T14:20:59.092Z,3.83
2023-05-20T14:23:26.780Z,3.53
2023-05-20T14:25:54.687Z,3.30
2023-05-20T14:28:22.356Z,3.03
2023-05-20T14:30:50.028Z,2.83
2023-05-20T14:33:19.202Z,3.15
2023-05-20T14:35:46.948Z,3.30
2023-05-20T14:38:14.690Z,3.13
2023-05-20T14:40:42.324Z,3.13
2023-05-20T14:43:09.983Z,2.70
2023-05-20T14:45:37.773Z,3.03
2023-05-20T14:48:06.901Z,3.00
2023-05-20T14:50:36.233Z,2.70
2023-05-20T14:53:04.198Z,2.70
2023-05-20T14:55:31.938Z,2.47
2023-05-20T14:57:59.593Z,2.67
2023-05-20T15:00:27.286Z,2.80
2023-05-20T15:02:55.741Z,3.35
2023-05-20T15:05:23.526Z,3.00
2023-05-20T15:07:52.642Z,3.30
2023-05-20T15:10:20.423Z,3.40
2023-05-20T15:12:48.028Z,4.30
2023-05-20T15:15:15.684Z,3.72
2023-05-20T15:17:43.362Z,4.13
2023-05-20T15:20:11.747Z,3.20
2023-05-20T15:22:39.495Z,3.63
2023-05-20T15:25:09.216Z,3.75
2023-05-20T15:27:36.861Z,3.35
2023-05-20T15:30:04.982Z,2.95
2023-05-20T15:32:32.695Z,3.10
2023-05-20T15:35:02.582Z,2.97
2023-05-20T15:37:30.556Z,3.22
2023-05-20T15:39:58.170Z,2.90
2023-05-20T15:42:27.225Z,3.03
2023-05-20T15:44:54.902Z,3.20
2023-05-20T15:47:22.596Z,3.00
2023-05-20T15:49:50.191Z,2.92
2023-05-20T15:52:17.882Z,3.05
2023-05-20T15:54:45.650Z,3.63
2023-05-20T15:57:13.308Z,3.78
2023-05-20T15:59:42.556Z,3.70
2023-05-20T16:02:10.305Z,3.85
2023-05-20T16:04:38.156Z,4.13
2023-05-20T16:07:06.037Z,4.75
2023-05-20T16:09:33.693Z,3.45
2023-05-20T16:12:02.280Z,3.67
2023-05-20T16:14:29.967Z,4.20
2023-05-20T16:16:58.974Z,3.33
2023-05-20T16:19:26.853Z,3.30
2023-05-20T16:21:54.590Z,3.40
2023-05-20T16:24:22.230Z,3.55
2023-05-20T16:26:49.907Z,3.63
2023-05-20T16:29:17.596Z,5.47
2023-05-20T16:31:46.975Z,4.00
2023-05-20T16:34:16.963Z,3.55
2023-05-20T16:36:46.094Z,3.42
2023-05-20T16:39:13.916Z,3.15
2023-05-20T16:41:42.145Z,3.92
2023-05-20T16:44:10.037Z,3.97
2023-05-20T16:46:37.758Z,3.97
2023-05-20T16:49:05.598Z,4.55
2023-05-20T16:51:34.695Z,3.90
2023-05-20T16:54:02.331Z,3.90
2023-05-20T16:56:30.013Z,4.45
2023-05-20T16:58:57.685Z,7.95
2023-05-20T17:01:25.370Z,6.05
2023-05-20T17:03:53.023Z,6.95
2023-05-20T17:06:20.792Z,4.28
2023-05-20T17:08:50.701Z,4.28
2023-05-20T17:11:18.327Z,4.72
2023-05-20T17:13:46.273Z,5.07
2023-05-20T17:16:14.031Z,5.20
2023-05-20T17:18:41.778Z,4.80
2023-05-20T17:21:09.511Z,4.47
2023-05-20T17:23:37.114Z,5.30
2023-05-20T17:26:06.155Z,4.53
2023-05-20T17:28:33.787Z,4.93
2023-05-20T17:31:01.429Z,5.10
2023-05-20T17:33:29.087Z,5.10
2023-05-20T17:35:56.745Z,5.20
2023-05-20T17:38:26.261Z,4.50
2023-05-20T17:40:54.086Z,4.55
2023-05-20T17:43:25.075Z,4.25
2023-05-20T17:45:52.844Z,5.13
2023-05-20T17:48:20.742Z,5.30
2023-05-20T17:50:48.418Z,5.10
2023-05-20T17:53:16.145Z,5.15
2023-05-20T17:55:47.073Z,5.57
2023-05-20T17:58:14.678Z,5.30
2023-05-20T18:00:43.729Z,5.47
2023-05-20T18:03:11.603Z,5.22
2023-05-20T18:05:39.269Z,5.20
2023-05-20T18:08:06.909Z,5.25
2023-05-20T18:10:34.702Z,5.70
2023-05-20T18:13:02.621Z,5.55
2023-05-20T18:15:30.243Z,5.35
2023-05-20T18:17:59.236Z,6.32
2023-05-20T18:20:26.848Z,16.08
2023-05-20T18:22:58.341Z,7.82
2023-05-20T18:38:07.852Z,10.20
2023-05-20T18:40:35.948Z,15.30
2023-05-20T18:43:03.802Z,14.85
2023-05-20T18:45:31.520Z,14.38
2023-05-20T18:48:00.156Z,8.23
2023-05-20T18:50:28.221Z,6.43
2023-05-20T18:52:56.208Z,5.10
2023-05-20T18:55:26.401Z,5.68
2023-05-20T18:57:55.996Z,5.95
2023-05-20T19:00:24.030Z,6.90
2023-05-20T19:02:52.099Z,6.47
2023-05-20T19:05:20.777Z,6.72
2023-05-20T19:07:48.823Z,8.50
2023-05-20T19:10:17.106Z,7.85
2023-05-20T19:12:46.774Z,7.60
2023-05-20T19:15:16.054Z,7.05
2023-05-20T19:17:44.261Z,7.80
2023-05-20T19:20:37.237Z,9.18
2023-05-20T19:23:06.710Z,8.90
2023-05-20T19:28:26.920Z,10.35
2023-05-20T19:30:57.147Z,11.00
2023-05-20T19:36:07.260Z,12.05
2023-05-20T19:38:46.714Z,9.95
2023-05-20T20:03:39.022Z,21.77
2023-05-20T20:06:06.632Z,19.35
2023-05-20T20:08:34.505Z,19.65
2023-05-20T20:11:02.112Z,18.80
2023-05-20T20:13:30.516Z,18.40
2023-05-20T20:15:58.865Z,14.98
2023-05-20T20:18:26.745Z,12.95
2023-05-20T20:20:55.990Z,13.82
2023-05-20T20:23:23.546Z,11.82
2023-05-20T20:25:51.160Z,12.15
2023-05-20T20:28:19.037Z,10.38
2023-05-20T20:30:46.649Z,10.23
2023-05-20T20:33:14.267Z,10.68
2023-05-20T20:35:42.065Z,7.97
2023-05-20T20:38:11.186Z,8.27
2023-05-20T20:40:41.475Z,8.38
2023-05-20T20:43:10.854Z,8.52
2023-05-20T20:45:38.521Z,8.20
2023-05-20T20:48:08.032Z,7.95
2023-05-20T20:50:36.652Z,7.80
2023-05-20T20:53:04.254Z,8.30
2023-05-20T20:55:34.461Z,8.40
2023-05-20T20:58:03.326Z,9.75
2023-05-20T21:00:30.943Z,9.40
2023-05-20T21:02:58.564Z,8.73
2023-05-20T21:05:26.715Z,9.30
2023-05-20T21:07:58.511Z,8.40
2023-05-20T21:10:29.020Z,8.57
2023-05-20T21:12:58.585Z,10.90
2023-05-20T21:15:27.436Z,9.52
2023-05-20T21:17:55.761Z,10.50
2023-05-20T21:20:23.914Z,10.43
2023-05-20T21:22:51.986Z,9.82
2023-05-20T21:25:19.672Z,10.88
2023-05-20T21:27:47.300Z,11.20
2023-05-20T21:30:17.542Z,11.50
2023-05-20T21:32:45.220Z,11.30
2023-05-20T21:35:13.327Z,11.30
2023-05-20T21:37:41.003Z,10.25
2023-05-20T21:40:09.549Z,12.45
2023-05-20T21:42:37.767Z,12.10
2023-05-20T21:45:07.168Z,12.38
2023-05-20T21:47:38.141Z,10.88
2023-05-20T21:50:06.991Z,11.23
2023-05-20T21:52:34.733Z,11.45
2023-05-20T21:55:02.368Z,10.75
2023-05-20T21:57:29.986Z,11.75
2023-05-20T21:59:59.901Z,10.50
2023-05-20T22:02:27.774Z,10.45
2023-05-20T22:04:57.755Z,11.27
2023-05-20T22:07:25.614Z,10.77
2023-05-20T22:09:53.485Z,9.73
2023-05-20T22:12:21.899Z,9.80
2023-05-20T22:14:50.031Z,10.45
2023-05-20T22:17:18.270Z,10.32
2023-05-20T22:19:47.557Z,10.43
2023-05-20T22:22:16.814Z,11.35
2023-05-20T22:24:44.363Z,10.55
2023-05-20T22:27:12.291Z,11.85
2023-05-20T22:29:39.851Z,11.10
2023-05-20T22:32:08.845Z,11.30
2023-05-20T22:34:36.422Z,10.82
2023-05-20T22:37:04.750Z,11.88
2023-05-20T22:39:34.230Z,10.57
2023-05-20T22:42:01.792Z,11.55
2023-05-20T22:44:30.204Z,10.63
2023-05-20T22:46:57.906Z,12.00
2023-05-20T22:49:27.922Z,10.38
2023-05-20T22:51:55.734Z,10.82
2023-05-20T22:54:23.397Z,13.50
2023-05-20T22:56:56.751Z,11.13
2023-05-20T22:59:24.787Z,9.52
2023-05-20T23:01:52.525Z,10.23
2023-05-20T23:04:20.439Z,10.00
2023-05-20T23:06:48.057Z,10.60
2023-05-20T23:09:15.641Z,10.65
2023-05-20T23:11:43.232Z,11.75
2023-05-20T23:14:12.201Z,11.60
2023-05-20T23:16:42.010Z,10.65
2023-05-20T23:19:09.827Z,12.25
2023-05-20T23:21:38.259Z,11.57
2023-05-20T23:24:06.834Z,12.07
2023-05-20T23:26:37.601Z,12.35
2023-05-20T23:29:05.748Z,12.35
2023-05-20T23:31:34.667Z,10.75
2023-05-20T23:34:03.701Z,11.27
2023-05-20T23:36:34.532Z,12.02
2023-05-20T23:39:02.485Z,10.15
2023-05-20T23:41:30.279Z,10.85
2023-05-20T23:43:57.890Z,9.75
2023-05-20T23:46:25.775Z,10.52
2023-05-20T23:48:54.787Z,10.65
2023-05-20T23:51:22.420Z,9.40
2023-05-20T23:53:50.507Z,12.15
2023-05-20T23:56:18.101Z,12.38
2023-05-20T23:58:45.834Z,12.40
